地図

経路データ

SID SEASON NUMBER BASIN SUBBASIN NAME ISO_TIME NATURE LAT LON WMO_WIND WMO_PRES WMO_AGENCY TRACK_TYPE DIST2LAND LANDFALL IFLAG USA_AGENCY USA_ATCF_ID USA_LAT USA_LON USA_RECORD USA_STATUS USA_WIND USA_PRES USA_SSHS USA_R34_NE USA_R34_SE USA_R34_SW USA_R34_NW USA_R50_NE USA_R50_SE USA_R50_SW USA_R50_NW USA_R64_NE USA_R64_SE USA_R64_SW USA_R64_NW USA_POCI USA_ROCI USA_RMW USA_EYE TOKYO_LAT TOKYO_LON TOKYO_GRADE TOKYO_WIND TOKYO_PRES TOKYO_R50_DIR TOKYO_R50_LONG TOKYO_R50_SHORT TOKYO_R30_DIR TOKYO_R30_LONG TOKYO_R30_SHORT TOKYO_LAND CMA_LAT CMA_LON CMA_CAT CMA_WIND CMA_PRES HKO_LAT HKO_LON HKO_CAT HKO_WIND HKO_PRES NEWDELHI_LAT NEWDELHI_LON NEWDELHI_GRADE NEWDELHI_WIND NEWDELHI_PRES NEWDELHI_CI NEWDELHI_DP NEWDELHI_POCI REUNION_LAT REUNION_LON REUNION_TYPE REUNION_WIND REUNION_PRES REUNION_TNUM REUNION_CI REUNION_RMW REUNION_R34_NE REUNION_R34_SE REUNION_R34_SW REUNION_R34_NW REUNION_R50_NE REUNION_R50_SE REUNION_R50_SW REUNION_R50_NW REUNION_R64_NE REUNION_R64_SE REUNION_R64_SW REUNION_R64_NW BOM_LAT BOM_LON BOM_TYPE BOM_WIND BOM_PRES BOM_TNUM BOM_CI BOM_RMW BOM_R34_NE BOM_R34_SE BOM_R34_SW BOM_R34_NW BOM_R50_NE BOM_R50_SE BOM_R50_SW BOM_R50_NW BOM_R64_NE BOM_R64_SE BOM_R64_SW BOM_R64_NW BOM_ROCI BOM_POCI BOM_EYE BOM_POS_METHOD BOM_PRES_METHOD NADI_LAT NADI_LON NADI_CAT NADI_WIND NADI_PRES WELLINGTON_LAT WELLINGTON_LON WELLINGTON_WIND WELLINGTON_PRES DS824_LAT DS824_LON DS824_STAGE DS824_WIND DS824_PRES TD9636_LAT TD9636_LON TD9636_STAGE TD9636_WIND TD9636_PRES TD9635_LAT TD9635_LON TD9635_WIND TD9635_PRES TD9635_ROCI NEUMANN_LAT NEUMANN_LON NEUMANN_CLASS NEUMANN_WIND NEUMANN_PRES MLC_LAT MLC_LON MLC_CLASS MLC_WIND MLC_PRES USA_GUST BOM_GUST BOM_GUST_PER REUNION_GUST REUNION_GUST_PER USA_SEAHGT USA_SEARAD_NE USA_SEARAD_SE USA_SEARAD_SW USA_SEARAD_NW STORM_SPEED STORM_DIR
1934275N26322 1934 62 NA NA NOT_NAMED 1934-10-01 12:00:00 TS 26.1000 -38.3000 60 hurdat_atl main 2135 2135 O_____________ hurdat_atl AL101934 26.1000 -38.3000 TS 60 0 19 310
1934275N26322 1934 62 NA NA NOT_NAMED 1934-10-01 15:00:00 TS 26.7135 -39.1133 main 2201 2201 P_____________ AL101934 26.7135 -39.1133 TS 62 0 19 310
1934275N26322 1934 62 NA NA NOT_NAMED 1934-10-01 18:00:00 TS 27.3000 -39.9000 65 hurdat_atl main 2268 2268 O_____________ hurdat_atl AL101934 27.3000 -39.9000 HU 65 1 18 310
1934275N26322 1934 62 NA NA NOT_NAMED 1934-10-01 21:00:00 TS 27.8371 -40.6305 main 2329 2285 P_____________ AL101934 27.8371 -40.6305 HU 67 1 16 309
1934275N26322 1934 62 NA NA NOT_NAMED 1934-10-02 00:00:00 TS 28.3000 -41.3000 70 hurdat_atl main 2285 2221 O_____________ hurdat_atl AL101934 28.3000 -41.3000 HU 70 1 14 307
1934275N26322 1934 62 NA NA NOT_NAMED 1934-10-02 03:00:00 TS 28.6872 -41.9306 main 2221 2167 P_____________ AL101934 28.6872 -41.9306 HU 72 1 13 304
1934275N26322 1934 62 NA NA NOT_NAMED 1934-10-02 06:00:00 TS 29.0000 -42.5000 75 984 hurdat_atl main 2167 2118 O_____________ hurdat_atl AL101934 29.0000 -42.5000 HU 75 984 1 11 302
1934275N26322 1934 62 NA NA NOT_NAMED 1934-10-02 09:00:00 TS 29.2720 -43.0080 main 2118 2080 P_____________ AL101934 29.2720 -43.0080 HU 77 1 10 300
1934275N26322 1934 62 NA NA NOT_NAMED 1934-10-02 12:00:00 TS 29.5000 -43.5000 80 hurdat_atl main 2080 2042 O_____________ hurdat_atl AL101934 29.5000 -43.5000 HU 80 1 10 296
1934275N26322 1934 62 NA NA NOT_NAMED 1934-10-02 15:00:00 TS 29.7149 -44.0427 main 2042 2001 P_____________ AL101934 29.7149 -44.0427 HU 82 1 10 293
1934275N26322 1934 62 NA NA NOT_NAMED 1934-10-02 18:00:00 TS 29.9000 -44.6000 85 hurdat_atl main 2001 1975 O_____________ hurdat_atl AL101934 29.9000 -44.6000 HU 85 2 10 290
1934275N26322 1934 62 NA NA NOT_NAMED 1934-10-02 21:00:00 TS 30.0572 -45.1428 main 1964 1936 P_____________ AL101934 30.0572 -45.1428 HU 85 2 10 287
1934275N26322 1934 62 NA NA NOT_NAMED 1934-10-03 00:00:00 TS 30.2000 -45.7000 85 hurdat_atl main 1936 1909 O_____________ hurdat_atl AL101934 30.2000 -45.7000 HU 85 2 10 286
1934275N26322 1934 62 NA NA NOT_NAMED 1934-10-03 03:00:00 TS 30.3348 -46.2929 main 1909 1872 P_____________ AL101934 30.3348 -46.2929 HU 80 1 11 286
1934275N26322 1934 62 NA NA NOT_NAMED 1934-10-03 06:00:00 TS 30.5000 -46.9000 75 hurdat_atl main 1872 1836 O_____________ hurdat_atl AL101934 30.5000 -46.9000 HU 75 1 11 291
1934275N26322 1934 62 NA NA NOT_NAMED 1934-10-03 09:00:00 TS 30.7348 -47.5075 main 1836 1790 P_____________ AL101934 30.7348 -47.5075 HU 70 1 11 296
1934275N26322 1934 62 NA NA NOT_NAMED 1934-10-03 12:00:00 TS 31.0000 -48.1000 65 hurdat_atl main 1790 1758 O_____________ hurdat_atl AL101934 31.0000 -48.1000 HU 65 1 11 298
1934275N26322 1934 62 NA NA NOT_NAMED 1934-10-03 15:00:00 TS 31.2573 -48.6652 main 1746 1715 P_____________ AL101934 31.2573 -48.6652 HU 60 0 11 298
1934275N26322 1934 62 NA NA NOT_NAMED 1934-10-03 18:00:00 TS 31.5000 -49.2000 55 hurdat_atl main 1715 1685 O_____________ hurdat_atl AL101934 31.5000 -49.2000 TS 55 0 10 297
1934275N26322 1934 62 NA NA NOT_NAMED 1934-10-03 21:00:00 TS 31.7072 -49.7079 main 1685 1656 P_____________ AL101934 31.7072 -49.7079 TS 50 0 9 295
1934275N26322 1934 62 NA NA NOT_NAMED 1934-10-04 00:00:00 TS 31.9000 -50.2000 45 hurdat_atl main 1656 1627 O_____________ hurdat_atl AL101934 31.9000 -50.2000 TS 45 0 9 295
1934275N26322 1934 62 NA NA NOT_NAMED 1934-10-04 03:00:00 TS 32.0979 -50.6970 main 1627 1600 P_____________ AL101934 32.0979 -50.6970 TS 40 0 9 295
1934275N26322 1934 62 NA NA NOT_NAMED 1934-10-04 06:00:00 TS 32.3000 -51.2000 35 hurdat_atl main 1600 O_____________ hurdat_atl AL101934 32.3000 -51.2000 TS 35 0 9 295

IBTrACS Databaseについて

本データベースは、米国NOAAが公開する1842年以降の世界の熱帯低気圧のベストトラックデータアーカイブInternational Best Track Archive for Climate Stewardship (IBTrACS)を、ウェブで閲覧しやすい形式に変換したものです。

最終更新日:2021-10-21